Time;durP1;ratioP1;P1;durP2;ratioP2;P2;SDS_P1;SDS_P2;PMS_P1;PMS_P2;Temp;Humidity;BMP_temperature;BMP_pressure;BME280_temperature;BME280_humidity;BME280_pressure;Samples;Min_cycle;Max_cycle;Signal;HPM_P1;HPM_P2
2023/07/04 00:01:04;;;;;;;15.45;7.18;;;16.20;99.90;;;;;;5026579;28;20045;-63
2023/07/04 00:03:32;;;;;;;14.55;7.53;;;16.30;99.90;;;;;;5034856;28;20064;-63
2023/07/04 00:05:59;;;;;;;12.02;7.03;;;16.30;99.90;;;;;;5026322;28;20494;-63
2023/07/04 00:08:27;;;;;;;11.48;6.90;;;16.30;99.90;;;;;;5034680;28;20052;-63
2023/07/04 00:10:57;;;;;;;14.80;6.80;;;16.30;99.90;;;;;;5033066;28;20041;-63
2023/07/04 00:13:26;;;;;;;14.63;7.00;;;16.20;99.90;;;;;;5034131;28;20553;-63
2023/07/04 00:15:55;;;;;;;13.52;7.28;;;16.30;99.90;;;;;;5026945;28;20045;-63
2023/07/04 00:18:24;;;;;;;15.93;6.93;;;16.30;99.90;;;;;;5034535;28;20534;-63
2023/07/04 00:20:54;;;;;;;15.32;6.80;;;16.40;99.90;;;;;;5034119;28;20037;-63
2023/07/04 00:23:22;;;;;;;14.68;6.97;;;16.30;99.90;;;;;;5026614;28;20045;-63
2023/07/04 00:25:49;;;;;;;12.77;7.00;;;16.40;99.90;;;;;;5033292;28;20037;-62
2023/07/04 00:28:16;;;;;;;15.07;7.00;;;16.30;99.90;;;;;;5023601;28;20041;-63
2023/07/04 00:30:43;;;;;;;12.27;6.55;;;16.30;99.90;;;;;;5022711;28;20092;-61
2023/07/04 00:33:13;;;;;;;12.10;5.63;;;16.10;99.90;;;;;;5023479;28;20033;-63
2023/07/04 00:35:40;;;;;;;13.75;6.80;;;16.10;99.90;;;;;;5024486;28;20128;-62
2023/07/04 00:38:07;;;;;;;15.05;6.78;;;16.10;99.90;;;;;;5015474;28;20037;-63
2023/07/04 00:40:33;;;;;;;13.90;7.32;;;16.10;99.90;;;;;;5032515;28;20048;-62
2023/07/04 00:43:04;;;;;;;15.60;8.48;;;16.10;99.90;;;;;;5010882;28;20041;-63
2023/07/04 00:45:35;;;;;;;14.23;7.50;;;16.00;99.90;;;;;;5032347;28;20060;-63
2023/07/04 00:48:03;;;;;;;14.57;7.13;;;16.10;99.90;;;;;;5020098;28;20049;-63
2023/07/04 00:50:35;;;;;;;14.63;7.32;;;16.10;99.90;;;;;;4996541;28;20375;-63
2023/07/04 00:53:04;;;;;;;17.27;7.25;;;16.10;99.90;;;;;;5026882;28;20775;-63
2023/07/04 00:55:36;;;;;;;11.88;6.72;;;16.20;99.90;;;;;;5020564;28;20057;-63
2023/07/04 00:58:06;;;;;;;14.77;6.95;;;16.30;99.90;;;;;;5023909;28;20050;-63
2023/07/04 01:00:37;;;;;;;13.95;7.40;;;16.20;99.90;;;;;;5025536;28;20136;-63
2023/07/04 01:03:11;;;;;;;13.60;6.90;;;16.10;99.90;;;;;;5031660;28;20065;-62
2023/07/04 01:05:54;;;;;;;15.88;7.32;;;16.10;99.90;;;;;;5026833;28;20449;-64
2023/07/04 01:08:26;;;;;;;14.88;7.68;;;16.10;99.90;;;;;;5024428;28;20060;-63
2023/07/04 01:10:55;;;;;;;18.27;7.93;;;16.00;99.90;;;;;;5032614;28;20045;-63
2023/07/04 01:13:38;;;;;;;11.00;6.75;;;16.00;99.90;;;;;;5025005;28;20136;-63
2023/07/04 01:16:11;;;;;;;14.43;6.70;;;16.00;99.90;;;;;;5013490;28;20103;-63
2023/07/04 01:18:44;;;;;;;15.63;7.40;;;16.00;99.90;;;;;;5028919;28;20037;-63
2023/07/04 01:21:13;;;;;;;17.50;8.45;;;16.20;99.90;;;;;;5006540;28;20513;-63
2023/07/04 01:24:03;;;;;;;17.33;7.75;;;16.10;99.90;;;;;;5014779;28;20041;-63
2023/07/04 01:26:37;;;;;;;16.75;8.23;;;16.10;99.90;;;;;;5017927;28;20040;-63
2023/07/04 01:29:10;;;;;;;15.02;7.93;;;16.10;99.90;;;;;;5013676;28;20042;-63
2023/07/04 01:31:37;;;;;;;12.68;7.88;;;16.10;99.90;;;;;;5031209;28;20045;-63
2023/07/04 01:34:05;;;;;;;16.67;8.02;;;16.00;99.90;;;;;;5015184;28;20487;-64
2023/07/04 01:36:35;;;;;;;15.35;7.75;;;16.00;99.90;;;;;;5024385;28;20486;-62
2023/07/04 01:39:02;;;;;;;17.13;8.38;;;16.00;99.90;;;;;;5024565;28;20037;-63
2023/07/04 01:41:30;;;;;;;15.60;7.65;;;16.00;99.90;;;;;;5024482;28;20069;-63
2023/07/04 01:44:05;;;;;;;17.75;7.93;;;15.90;99.90;;;;;;5026605;28;20053;-63
2023/07/04 01:46:33;;;;;;;17.30;7.78;;;15.90;99.90;;;;;;5031691;28;20037;-63
2023/07/04 01:49:01;;;;;;;15.65;8.50;;;15.90;99.90;;;;;;5023073;28;20613;-63
2023/07/04 01:51:30;;;;;;;17.83;8.60;;;15.90;99.90;;;;;;5023232;28;20037;-63
2023/07/04 01:53:57;;;;;;;18.38;8.52;;;15.90;99.90;;;;;;5013778;28;20073;-63
2023/07/04 01:56:24;;;;;;;;;;;15.80;99.90;;;;;;5011863;28;20459;-63
2023/07/04 01:58:51;;;;;;;15.88;7.90;;;15.80;99.90;;;;;;5026985;28;19949;-63
2023/07/04 02:01:18;;;;;;;17.02;8.25;;;15.80;99.90;;;;;;5018768;28;20041;-63
2023/07/04 02:03:45;;;;;;;19.38;8.63;;;15.70;99.90;;;;;;5022791;28;20045;-63
2023/07/04 02:06:14;;;;;;;15.02;7.47;;;15.70;99.90;;;;;;5011474;28;20046;-63
2023/07/04 02:08:41;;;;;;;16.23;8.10;;;15.60;99.90;;;;;;5020499;28;20029;-63
2023/07/04 02:11:08;;;;;;;19.40;8.27;;;15.50;99.90;;;;;;5013310;28;20129;-63
2023/07/04 02:13:35;;;;;;;13.38;7.30;;;15.40;99.90;;;;;;5010721;28;20564;-63
2023/07/04 02:16:02;;;;;;;11.80;7.40;;;15.30;99.90;;;;;;5003274;28;20038;-62
2023/07/04 02:18:29;;;;;;;20.35;7.65;;;15.20;99.90;;;;;;5025487;28;20442;-62
2023/07/04 02:20:56;;;;;;;17.80;7.65;;;15.20;99.90;;;;;;5007990;28;20049;-63
2023/07/04 02:23:23;;;;;;;13.77;7.22;;;15.20;99.90;;;;;;5023597;28;20050;-63
2023/07/04 02:25:52;;;;;;;15.75;7.45;;;15.30;99.90;;;;;;5024065;28;20037;-63
2023/07/04 02:28:18;;;;;;;14.55;6.93;;;15.30;99.90;;;;;;5013476;28;20055;-63
2023/07/04 02:30:53;;;;;;;15.63;8.07;;;15.30;99.90;;;;;;5014472;28;20037;-63
2023/07/04 02:33:20;;;;;;;16.38;7.60;;;15.30;99.90;;;;;;5011095;28;20120;-63
2023/07/04 02:35:48;;;;;;;17.13;7.53;;;15.30;99.90;;;;;;4997769;28;20045;-63
2023/07/04 02:38:18;;;;;;;14.93;7.47;;;15.50;99.90;;;;;;5009951;28;20042;-63
2023/07/04 02:40:46;;;;;;;11.77;7.03;;;15.30;99.90;;;;;;5027099;28;20048;-63
2023/07/04 02:43:15;;;;;;;13.43;7.57;;;15.30;99.90;;;;;;5018898;28;20060;-63
2023/07/04 02:45:43;;;;;;;14.35;7.43;;;15.40;99.90;;;;;;5008505;28;20037;-62
2023/07/04 02:48:14;;;;;;;13.27;6.90;;;15.40;99.90;;;;;;5002984;28;20513;-63
2023/07/04 02:50:41;;;;;;;13.82;7.13;;;15.40;99.90;;;;;;5008575;28;20454;-63
2023/07/04 02:53:07;;;;;;;16.27;7.28;;;15.30;99.90;;;;;;5017050;28;20034;-63
2023/07/04 02:55:35;;;;;;;17.80;7.32;;;15.40;99.90;;;;;;5010463;28;20080;-63
2023/07/04 02:58:02;;;;;;;14.27;7.40;;;15.40;99.90;;;;;;5010725;28;20068;-64
2023/07/04 03:00:29;;;;;;;13.52;8.50;;;15.30;99.90;;;;;;5010860;28;20405;-63
2023/07/04 03:02:56;;;;;;;12.82;6.80;;;15.30;99.90;;;;;;5010216;28;20526;-63
2023/07/04 03:05:26;;;;;;;17.25;7.53;;;15.30;99.90;;;;;;5002028;28;20038;-63
2023/07/04 03:07:53;;;;;;;13.15;7.28;;;15.20;99.90;;;;;;5012848;28;20517;-63
2023/07/04 03:10:21;;;;;;;;;;;15.20;99.90;;;;;;5013795;28;20490;-63
2023/07/04 03:12:48;;;;;;;14.98;7.00;;;15.10;99.90;;;;;;5020527;28;19964;-64
2023/07/04 03:15:15;;;;;;;;;;;15.10;99.90;;;;;;5014778;28;20041;-63
2023/07/04 03:17:49;;;;;;;14.07;7.22;;;15.00;99.90;;;;;;5029557;28;19928;-63
2023/07/04 03:20:16;;;;;;;17.00;7.38;;;15.00;99.90;;;;;;5012303;28;20046;-63
2023/07/04 03:22:46;;;;;;;17.80;7.15;;;15.00;99.90;;;;;;5006981;28;20046;-63
2023/07/04 03:25:15;;;;;;;;;;;15.10;99.90;;;;;;5019806;28;20311;-62
2023/07/04 03:27:44;;;;;;;17.23;7.65;;;14.90;99.90;;;;;;5018895;28;20424;-63
2023/07/04 03:30:13;;;;;;;17.08;7.53;;;15.10;99.90;;;;;;5013901;28;20038;-63
2023/07/04 03:32:42;;;;;;;12.70;7.03;;;15.10;99.90;;;;;;5016630;28;20044;-64
2023/07/04 03:35:10;;;;;;;15.35;7.47;;;15.10;99.90;;;;;;5008550;28;20474;-64
2023/07/04 03:37:40;;;;;;;17.77;6.93;;;15.10;99.90;;;;;;5017266;28;20056;-64
2023/07/04 03:40:09;;;;;;;13.80;7.22;;;15.20;99.90;;;;;;5014539;28;20045;-64
2023/07/04 03:42:38;;;;;;;16.75;7.53;;;15.20;99.90;;;;;;5002692;28;20064;-63
2023/07/04 03:45:06;;;;;;;14.68;7.70;;;15.20;99.90;;;;;;5016118;28;20069;-63
2023/07/04 03:47:33;;;;;;;14.68;7.55;;;15.20;99.90;;;;;;5016977;28;20425;-63
2023/07/04 03:50:02;;;;;;;16.92;7.13;;;15.20;99.90;;;;;;5008229;28;20115;-63
2023/07/04 03:52:29;;;;;;;;;;;15.20;99.90;;;;;;5009790;28;20068;-63
2023/07/04 03:54:56;;;;;;;15.18;7.50;;;15.30;99.90;;;;;;5034306;28;19925;-63
2023/07/04 03:57:22;;;;;;;12.85;7.65;;;15.30;99.90;;;;;;5023446;28;20393;-63
2023/07/04 03:59:49;;;;;;;16.25;7.60;;;15.40;99.90;;;;;;5020330;28;20056;-63
2023/07/04 04:02:16;;;;;;;15.93;7.05;;;15.30;99.90;;;;;;5024296;28;20053;-64
2023/07/04 04:04:43;;;;;;;12.80;6.93;;;15.30;99.90;;;;;;5028544;28;20493;-63
2023/07/04 04:07:10;;;;;;;14.20;6.75;;;15.30;99.90;;;;;;5026326;28;20051;-63
2023/07/04 04:09:38;;;;;;;12.60;7.35;;;15.30;99.90;;;;;;5027739;28;20041;-64
2023/07/04 04:12:06;;;;;;;12.90;6.90;;;15.30;99.90;;;;;;5024935;28;20050;-63
2023/07/04 04:14:35;;;;;;;18.17;6.97;;;15.40;99.90;;;;;;5021941;28;20126;-63
2023/07/04 04:17:03;;;;;;;15.18;7.32;;;15.40;99.90;;;;;;5033382;28;20054;-63
2023/07/04 04:19:30;;;;;;;12.32;6.70;;;15.30;99.90;;;;;;5023066;28;20048;-63
2023/07/04 04:21:57;;;;;;;15.20;6.97;;;15.30;99.90;;;;;;5026675;28;20073;-63
2023/07/04 04:24:24;;;;;;;14.15;6.90;;;15.20;99.90;;;;;;5016090;28;20050;-63
2023/07/04 04:26:51;;;;;;;17.42;7.80;;;15.20;99.90;;;;;;5023435;28;20056;-63
2023/07/04 04:29:18;;;;;;;12.88;7.13;;;15.60;99.90;;;;;;5020602;28;20049;-63
2023/07/04 04:31:46;;;;;;;12.77;7.07;;;15.60;99.90;;;;;;5027444;28;20037;-63
2023/07/04 04:34:13;;;;;;;16.48;7.45;;;15.40;99.90;;;;;;5024668;28;20060;-64
2023/07/04 04:36:40;;;;;;;14.25;7.50;;;15.40;99.90;;;;;;5034229;28;20040;-63
2023/07/04 04:39:07;;;;;;;15.43;7.78;;;15.40;99.90;;;;;;5024680;28;20080;-63
2023/07/04 04:41:36;;;;;;;14.30;7.50;;;15.50;99.90;;;;;;5025766;28;20051;-63
2023/07/04 04:44:04;;;;;;;13.95;7.70;;;15.60;99.90;;;;;;5017880;28;20120;-63
2023/07/04 04:46:32;;;;;;;13.02;7.25;;;15.60;99.90;;;;;;5026019;28;20037;-63
2023/07/04 04:49:03;;;;;;;12.50;7.22;;;15.70;99.90;;;;;;5024756;28;20457;-63
2023/07/04 04:51:31;;;;;;;18.35;7.90;;;15.70;99.90;;;;;;5025834;28;20038;-63
2023/07/04 04:53:58;;;;;;;15.90;7.93;;;15.80;99.90;;;;;;5024539;28;20034;-64
2023/07/04 04:56:25;;;;;;;;;;;15.90;99.90;;;;;;5025863;28;20553;-64
2023/07/04 04:58:52;;;;;;;15.75;7.10;;;15.90;99.90;;;;;;5025288;28;19921;-64
2023/07/04 05:01:22;;;;;;;;;;;16.00;99.90;;;;;;5030436;28;20104;-64
2023/07/04 05:03:52;;;;;;;13.20;7.22;;;16.10;99.90;;;;;;5025769;28;19932;-64
2023/07/04 05:06:21;;;;;;;13.88;7.15;;;16.00;99.90;;;;;;5024929;28;20045;-63
2023/07/04 05:08:48;;;;;;;15.15;7.38;;;16.20;99.90;;;;;;5033688;28;20398;-63
2023/07/04 05:11:15;;;;;;;15.15;7.25;;;16.30;99.90;;;;;;5023867;28;20046;-63
2023/07/04 05:13:45;;;;;;;15.05;7.13;;;16.40;99.90;;;;;;5025117;28;20033;-64
2023/07/04 05:16:14;;;;;;;17.38;7.20;;;16.40;99.90;;;;;;5024514;28;20095;-64
2023/07/04 05:18:42;;;;;;;16.15;7.70;;;16.40;99.90;;;;;;5032725;28;20045;-63
2023/07/04 05:21:16;;;;;;;18.52;7.35;;;16.50;99.90;;;;;;5029069;28;20060;-64
2023/07/04 05:23:45;;;;;;;13.25;6.90;;;16.50;99.90;;;;;;5015156;28;20048;-64
2023/07/04 05:26:19;;;;;;;15.32;8.20;;;16.60;99.90;;;;;;5023238;28;20037;-64
2023/07/04 05:28:46;;;;;;;15.15;8.35;;;16.70;99.90;;;;;;5032865;28;20053;-64
2023/07/04 05:31:15;;;;;;;18.38;8.38;;;16.70;99.90;;;;;;5024079;28;20494;-63
2023/07/04 05:33:43;;;;;;;16.20;8.13;;;16.70;99.90;;;;;;5025123;28;20034;-63
2023/07/04 05:36:12;;;;;;;13.15;7.50;;;16.70;99.90;;;;;;5024012;28;20041;-64
2023/07/04 05:38:39;;;;;;;19.42;8.52;;;16.70;99.90;;;;;;5025127;28;20405;-64
2023/07/04 05:41:15;;;;;;;17.27;9.32;;;16.80;99.90;;;;;;5024579;28;20041;-64
2023/07/04 05:43:42;;;;;;;14.80;7.97;;;16.70;99.90;;;;;;5025372;28;20048;-64
2023/07/04 05:46:09;;;;;;;;;;;16.70;99.90;;;;;;5021899;28;20045;-64
2023/07/04 05:48:37;;;;;;;18.48;7.45;;;16.70;99.90;;;;;;5021039;28;19968;-64
2023/07/04 05:51:06;;;;;;;18.00;7.47;;;16.70;99.90;;;;;;5026581;28;20049;-64
2023/07/04 05:53:35;;;;;;;14.77;7.85;;;16.70;99.90;;;;;;5020660;28;20042;-64
2023/07/04 05:56:13;;;;;;;15.57;7.45;;;16.70;99.90;;;;;;5031625;28;20049;-63
2023/07/04 05:58:42;;;;;;;18.88;7.88;;;16.70;99.90;;;;;;5025649;28;20038;-64
2023/07/04 06:01:13;;;;;;;12.32;7.72;;;16.70;99.90;;;;;;5027935;28;20516;-63
2023/07/04 06:03:41;;;;;;;18.40;8.18;;;16.70;99.90;;;;;;5029564;28;20409;-63
2023/07/04 06:06:21;;;;;;;20.75;9.23;;;16.70;99.90;;;;;;5031807;28;20049;-64
2023/07/04 06:08:49;;;;;;;15.27;8.85;;;16.70;99.90;;;;;;5023406;28;20642;-63
2023/07/04 06:11:16;;;;;;;15.68;9.10;;;16.90;99.90;;;;;;5023726;28;20045;-63
2023/07/04 06:13:43;;;;;;;15.88;9.45;;;17.00;99.90;;;;;;5019677;28;20041;-64
2023/07/04 06:16:11;;;;;;;16.67;8.95;;;17.20;99.90;;;;;;5023784;28;20092;-64
2023/07/04 06:18:38;;;;;;;;;;;17.10;99.90;;;;;;5030866;28;20041;-64
2023/07/04 06:21:08;;;;;;;14.02;7.72;;;17.40;99.90;;;;;;5029024;28;19925;-64
2023/07/04 06:23:36;;;;;;;14.85;7.22;;;17.50;99.90;;;;;;5031842;28;20042;-63
2023/07/04 06:26:04;;;;;;;14.73;8.23;;;17.60;99.90;;;;;;5031421;28;20046;-64
2023/07/04 06:28:32;;;;;;;16.70;8.35;;;17.70;99.90;;;;;;5032120;28;20045;-64
2023/07/04 06:31:02;;;;;;;16.95;8.63;;;17.80;99.90;;;;;;5023256;28;20042;-64
2023/07/04 06:33:28;;;;;;;16.88;7.65;;;17.80;99.90;;;;;;5026737;28;20045;-64
2023/07/04 06:35:55;;;;;;;18.95;8.65;;;17.90;99.90;;;;;;5030963;28;20052;-64
2023/07/04 06:38:23;;;;;;;18.33;9.00;;;18.00;99.90;;;;;;5031603;28;20037;-64
2023/07/04 06:40:56;;;;;;;21.83;9.70;;;18.20;99.90;;;;;;5028377;28;20052;-64
2023/07/04 06:43:24;;;;;;;14.88;7.88;;;18.30;99.90;;;;;;5029602;28;20045;-64
2023/07/04 06:45:51;;;;;;;16.30;8.95;;;18.50;99.90;;;;;;5029758;28;20045;-64
2023/07/04 06:48:21;;;;;;;15.23;9.50;;;18.50;99.90;;;;;;5030652;28;20379;-64
2023/07/04 06:50:59;;;;;;;16.08;8.50;;;18.50;99.90;;;;;;5030293;28;20041;-64
2023/07/04 06:53:27;;;;;;;18.35;8.60;;;18.30;99.90;;;;;;5021836;28;20045;-64
2023/07/04 06:56:08;;;;;;;16.45;9.13;;;18.20;99.90;;;;;;5023498;28;20048;-64
2023/07/04 06:58:40;;;;;;;14.95;8.70;;;18.20;99.90;;;;;;5028336;28;20041;-64
2023/07/04 07:01:08;;;;;;;19.02;9.15;;;18.20;99.90;;;;;;5030112;28;20069;-64
2023/07/04 07:03:35;;;;;;;18.38;9.43;;;18.50;99.90;;;;;;5030271;28;20054;-64
2023/07/04 07:06:03;;;;;;;;;;;18.50;99.90;;;;;;5023317;28;20494;-64
2023/07/04 07:08:30;;;;;;;16.25;8.77;;;18.70;99.90;;;;;;5027531;28;19972;-64
2023/07/04 07:10:59;;;;;;;16.65;9.07;;;19.00;99.90;;;;;;5030536;28;20049;-64
2023/07/04 07:13:27;;;;;;;19.42;9.10;;;19.00;99.90;;;;;;5030126;28;20498;-64
2023/07/04 07:16:06;;;;;;;18.02;9.50;;;19.10;99.90;;;;;;5031054;28;20494;-64
2023/07/04 07:18:34;;;;;;;17.02;9.32;;;19.20;99.90;;;;;;5028780;28;20048;-64
2023/07/04 07:21:05;;;;;;;18.33;9.52;;;19.20;99.90;;;;;;5031297;28;20406;-64
2023/07/04 07:23:33;;;;;;;17.58;9.25;;;19.30;99.90;;;;;;5028822;28;20057;-64
2023/07/04 07:26:03;;;;;;;19.50;8.52;;;19.50;99.90;;;;;;5029918;28;20433;-64
2023/07/04 07:28:33;;;;;;;17.80;8.00;;;19.80;99.90;;;;;;5027254;28;20512;-64
2023/07/04 07:31:14;;;;;;;14.88;7.88;;;20.00;99.90;;;;;;5030281;28;20076;-64
2023/07/04 07:33:45;;;;;;;14.63;7.93;;;20.20;99.90;;;;;;5030643;28;20083;-64
2023/07/04 07:36:19;;;;;;;14.70;7.15;;;20.20;99.90;;;;;;5028218;28;20060;-64
2023/07/04 07:38:48;;;;;;;12.57;7.57;;;20.10;99.90;;;;;;5022408;28;20057;-64
2023/07/04 07:41:16;;;;;;;13.45;6.75;;;20.00;99.90;;;;;;5027823;28;20502;-64
2023/07/04 07:43:43;;;;;;;12.40;6.68;;;20.00;99.90;;;;;;5021952;28;20049;-64
2023/07/04 07:46:13;;;;;;;17.00;7.43;;;20.20;99.90;;;;;;5025602;28;20060;-64
2023/07/04 07:48:41;;;;;;;19.92;7.57;;;20.20;99.90;;;;;;5025539;28;20092;-64
2023/07/04 07:51:11;;;;;;;13.82;7.20;;;20.40;99.90;;;;;;5029763;28;20041;-64
2023/07/04 07:53:40;;;;;;;16.02;6.90;;;20.60;99.90;;;;;;5022603;28;20037;-64
2023/07/04 07:56:09;;;;;;;15.43;6.60;;;20.70;99.90;;;;;;5029452;28;20033;-64
2023/07/04 07:58:36;;;;;;;14.82;6.80;;;21.00;99.90;;;;;;5025934;28;20359;-64
2023/07/04 08:01:11;;;;;;;10.27;5.75;;;21.20;99.90;;;;;;5028483;28;20037;-64
2023/07/04 08:03:39;;;;;;;15.07;5.43;;;21.40;99.90;;;;;;5029011;28;20046;-64
2023/07/04 08:06:27;;;;;;;9.93;5.93;;;21.40;99.90;;;;;;5028849;28;20505;-64
2023/07/04 08:08:56;;;;;;;11.18;5.90;;;21.40;99.90;;;;;;5029469;28;20073;-64
2023/07/04 08:11:24;;;;;;;13.20;5.47;;;21.20;99.90;;;;;;5029884;28;20038;-64
2023/07/04 08:13:52;;;;;;;11.60;5.50;;;21.20;99.90;;;;;;5030110;28;20041;-64
2023/07/04 08:16:25;;;;;;;12.25;6.25;;;21.50;99.90;;;;;;5031049;28;20083;-64
2023/07/04 08:18:52;;;;;;;11.10;4.95;;;21.90;99.90;;;;;;5033375;28;20061;-64
2023/07/04 08:21:19;;;;;;;10.48;5.50;;;22.20;99.90;;;;;;5032842;28;20422;-64
2023/07/04 08:23:46;;;;;;;9.93;4.95;;;22.50;99.90;;;;;;5033000;28;20045;-64
2023/07/04 08:26:21;;;;;;;13.15;5.10;;;22.60;99.90;;;;;;5032616;28;20049;-64
2023/07/04 08:28:48;;;;;;;10.50;5.05;;;22.30;99.90;;;;;;5033696;28;20057;-64
2023/07/04 08:31:18;;;;;;;9.50;4.72;;;22.00;99.90;;;;;;5032169;28;20069;-64
2023/07/04 08:33:46;;;;;;;12.27;5.18;;;21.70;99.90;;;;;;5033782;28;20030;-64
2023/07/04 08:36:14;;;;;;;10.38;5.78;;;21.60;99.90;;;;;;5031939;28;20038;-64
2023/07/04 08:38:42;;;;;;;16.50;4.93;;;21.50;99.90;;;;;;5033215;28;20042;-64
2023/07/04 08:41:37;;;;;;;9.70;5.38;;;21.50;99.90;;;;;;5033406;28;20046;-64
2023/07/04 08:44:11;;;;;;;12.30;5.53;;;21.40;99.90;;;;;;5030482;28;20045;-64
2023/07/04 08:46:42;;;;;;;9.77;4.95;;;21.30;99.90;;;;;;5030777;28;20532;-64
2023/07/04 08:49:22;;;;;;;21.08;4.55;;;21.20;99.90;;;;;;5032365;28;20378;-64
2023/07/04 08:52:22;;;;;;;8.40;4.60;;;21.10;99.90;;;;;;5031799;28;20052;-64
2023/07/04 08:54:51;;;;;;;8.23;4.93;;;21.10;99.90;;;;;;4999252;28;20041;-64
2023/07/04 08:57:40;;;;;;;8.45;4.47;;;21.00;99.90;;;;;;5030920;28;20128;-64
2023/07/04 09:00:12;;;;;;;11.30;4.72;;;21.10;99.90;;;;;;5031666;28;20508;-63
2023/07/04 09:02:39;;;;;;;10.32;4.15;;;21.10;99.90;;;;;;5029068;28;20524;-64
2023/07/04 09:05:24;;;;;;;7.78;4.18;;;21.20;99.90;;;;;;5028945;28;20085;-64
2023/07/04 09:08:26;;;;;;;10.57;4.53;;;21.20;99.90;;;;;;5031131;28;20037;-64
2023/07/04 09:10:59;;;;;;;8.50;4.40;;;21.20;99.90;;;;;;4990174;28;20896;-64
2023/07/04 09:13:31;;;;;;;11.20;4.82;;;21.30;99.90;;;;;;5030120;28;20038;-64
2023/07/04 09:16:04;;;;;;;7.93;4.00;;;21.60;99.90;;;;;;5031283;28;20149;-64
2023/07/04 09:18:42;;;;;;;10.18;4.40;;;21.80;99.90;;;;;;5031905;28;20075;-64
2023/07/04 09:21:16;;;;;;;8.75;3.95;;;22.00;99.90;;;;;;5030286;28;20520;-64
2023/07/04 09:23:46;;;;;;;10.77;3.83;;;22.00;99.90;;;;;;5029409;28;20402;-64
2023/07/04 09:26:17;;;;;;;8.10;3.72;;;21.80;99.90;;;;;;5031742;28;20041;-64
2023/07/04 09:28:47;;;;;;;5.80;4.07;;;21.70;99.90;;;;;;5029198;28;20060;-64
2023/07/04 09:31:22;;;;;;;8.15;3.60;;;21.70;99.90;;;;;;5031737;28;20041;-64
2023/07/04 09:33:52;;;;;;;6.10;3.38;;;21.80;99.90;;;;;;5029290;28;20355;-64
2023/07/04 09:36:21;;;;;;;10.07;3.47;;;22.00;99.90;;;;;;5032624;28;20033;-64
2023/07/04 09:38:57;;;;;;;6.38;3.50;;;22.00;99.90;;;;;;5029749;28;20044;-64
2023/07/04 09:41:26;;;;;;;8.55;3.90;;;22.00;99.90;;;;;;5032274;28;20494;-64
2023/07/04 09:44:13;;;;;;;7.22;3.53;;;21.80;99.90;;;;;;5031736;28;20436;-63
2023/07/04 09:46:49;;;;;;;9.65;3.67;;;21.80;99.90;;;;;;5030789;28;20060;-64
2023/07/04 09:49:25;;;;;;;7.35;3.47;;;22.00;99.90;;;;;;5032369;28;20518;-64
2023/07/04 09:52:11;;;;;;;8.43;3.40;;;22.40;99.90;;;;;;5030706;28;20050;-64
2023/07/04 09:54:39;;;;;;;8.20;4.00;;;22.70;99.90;;;;;;5012231;28;20096;-64
2023/07/04 09:57:28;;;;;;;10.77;3.72;;;22.70;99.90;;;;;;5029700;28;20482;-64
2023/07/04 10:00:16;;;;;;;6.95;3.58;;;22.30;99.90;;;;;;5031530;28;20117;-64
2023/07/04 10:02:45;;;;;;;9.02;3.38;;;22.10;99.90;;;;;;5027730;28;20059;-64
2023/07/04 10:05:33;;;;;;;6.38;3.67;;;22.30;99.90;;;;;;5032101;28;20620;-64
2023/07/04 10:08:12;;;;;;;6.90;4.03;;;22.60;99.90;;;;;;5013086;28;20056;-64
2023/07/04 10:10:50;;;;;;;6.68;3.63;;;22.80;99.90;;;;;;5031563;28;20041;-64
2023/07/04 10:13:26;;;;;;;8.27;3.85;;;23.10;99.90;;;;;;5029420;28;20124;-64
2023/07/04 10:15:53;;;;;;;5.85;3.15;;;23.20;99.90;;;;;;5032151;28;20060;-64
2023/07/04 10:18:31;;;;;;;6.63;3.50;;;23.30;99.90;;;;;;5020268;28;20048;-64
2023/07/04 10:20:59;;;;;;;6.43;3.47;;;23.50;99.90;;;;;;5032084;28;20042;-64
2023/07/04 10:23:29;;;;;;;6.85;3.22;;;23.70;99.90;;;;;;5032150;28;20385;-64
2023/07/04 10:25:59;;;;;;;5.85;3.40;;;23.80;99.90;;;;;;5031466;28;20050;-64
2023/07/04 10:28:27;;;;;;;4.47;3.10;;;23.80;99.90;;;;;;5025399;28;20084;-64
2023/07/04 10:31:09;;;;;;;6.00;3.35;;;23.70;99.90;;;;;;5031192;28;20041;-64
2023/07/04 10:33:41;;;;;;;6.20;3.17;;;23.70;99.90;;;;;;5030323;28;20057;-64
2023/07/04 10:36:10;;;;;;;5.43;3.30;;;23.70;99.90;;;;;;5006830;28;20034;-64
2023/07/04 10:38:42;;;;;;;4.25;2.97;;;23.70;99.90;;;;;;5022268;28;20037;-64
2023/07/04 10:41:24;;;;;;;9.13;3.75;;;23.70;99.90;;;;;;5023987;28;20124;-64
2023/07/04 10:43:56;;;;;;;4.32;2.65;;;23.70;99.90;;;;;;5022025;28;20045;-64
2023/07/04 10:46:28;;;;;;;4.68;2.35;;;23.60;99.90;;;;;;5031969;28;20049;-63
2023/07/04 10:49:09;;;;;;;5.07;2.70;;;23.60;99.90;;;;;;5021939;28;20041;-61
2023/07/04 10:51:40;;;;;;;4.55;2.55;;;23.60;99.90;;;;;;5029502;28;20049;-63
2023/07/04 10:54:11;;;;;;;5.32;2.58;;;23.60;99.90;;;;;;5028276;28;20033;-62
2023/07/04 10:56:46;;;;;;;3.15;2.30;;;23.60;99.90;;;;;;5029808;28;20521;-63
2023/07/04 10:59:22;;;;;;;4.30;2.85;;;23.50;99.90;;;;;;5026955;28;20403;-64
2023/07/04 11:01:59;;;;;;;4.50;2.70;;;23.60;99.90;;;;;;5030096;28;20060;-63
2023/07/04 11:04:36;;;;;;;2.42;1.95;;;23.60;99.90;;;;;;5030331;28;20425;-63
2023/07/04 11:07:06;;;;;;;3.40;2.00;;;23.50;99.90;;;;;;5029108;28;20069;-64
2023/07/04 11:09:37;;;;;;;5.57;2.20;;;23.50;99.90;;;;;;5030630;28;20730;-64
2023/07/04 11:12:06;;;;;;;2.95;2.20;;;23.50;99.90;;;;;;5029420;28;20055;-63
2023/07/04 11:14:39;;;;;;;5.50;2.28;;;23.50;99.90;;;;;;5028145;28;20029;-63
2023/07/04 11:17:16;;;;;;;4.93;1.92;;;23.60;99.90;;;;;;5029305;28;20050;-63
2023/07/04 11:19:53;;;;;;;6.70;2.45;;;23.60;99.90;;;;;;5030400;28;20037;-63
2023/07/04 11:22:20;;;;;;;2.55;1.77;;;23.60;99.90;;;;;;5017623;28;20095;-60
2023/07/04 11:24:54;;;;;;;3.75;1.95;;;23.70;99.90;;;;;;5025082;28;20672;-61
2023/07/04 11:27:29;;;;;;;6.13;2.08;;;23.80;99.90;;;;;;5028492;28;20053;-61
2023/07/04 11:30:03;;;;;;;4.15;2.15;;;23.70;99.90;;;;;;5026154;28;20057;-60
2023/07/04 11:32:40;;;;;;;4.13;2.20;;;23.80;99.90;;;;;;5029384;28;20072;-61
2023/07/04 11:35:10;;;;;;;4.28;2.05;;;24.00;99.90;;;;;;5027295;28;20354;-61
2023/07/04 11:37:51;;;;;;;3.40;2.40;;;24.20;99.90;;;;;;5029876;28;20037;-61
2023/07/04 11:40:26;;;;;;;3.42;2.00;;;24.30;99.90;;;;;;5027680;28;20033;-62
2023/07/04 11:42:58;;;;;;;3.70;2.00;;;24.10;99.90;;;;;;5018710;28;20046;-61
2023/07/04 11:45:29;;;;;;;4.95;2.05;;;24.00;99.90;;;;;;5028893;28;20044;-63
2023/07/04 11:48:02;;;;;;;4.63;2.13;;;23.90;99.90;;;;;;5014329;28;20045;-64
2023/07/04 11:50:43;;;;;;;3.15;1.67;;;23.90;99.90;;;;;;5031755;28;20046;-64
2023/07/04 11:53:36;;;;;;;2.47;1.67;;;24.10;99.90;;;;;;5028245;28;20482;-63
2023/07/04 11:56:23;;;;;;;4.25;2.00;;;24.20;99.90;;;;;;5032785;28;20249;-63
2023/07/04 11:59:12;;;;;;;3.70;1.70;;;24.10;99.90;;;;;;5032270;28;20034;-63
2023/07/04 12:01:55;;;;;;;2.95;2.17;;;24.30;99.90;;;;;;5031837;28;20049;-63
2023/07/04 12:04:22;;;;;;;3.10;1.85;;;24.30;99.90;;;;;;5023579;28;20094;-64
2023/07/04 12:07:04;;;;;;;2.22;1.83;;;24.40;99.90;;;;;;5024144;28;20450;-64
2023/07/04 12:09:42;;;;;;;2.55;1.70;;;24.30;99.90;;;;;;5020582;28;20050;-63
2023/07/04 12:12:18;;;;;;;2.63;1.88;;;24.20;99.90;;;;;;5033189;28;20134;-63
2023/07/04 12:14:47;;;;;;;2.75;1.98;;;24.30;99.90;;;;;;5023508;28;20052;-63
2023/07/04 12:17:17;;;;;;;5.40;1.95;;;24.40;99.90;;;;;;5022992;28;20057;-63
2023/07/04 12:19:44;;;;;;;4.55;1.95;;;24.20;99.90;;;;;;5029298;28;20382;-64
2023/07/04 12:22:15;;;;;;;3.28;2.00;;;24.20;99.90;;;;;;5032151;28;20056;-64
2023/07/04 12:24:44;;;;;;;6.38;2.03;;;24.30;99.90;;;;;;5023673;28;20471;-64
2023/07/04 12:27:11;;;;;;;4.13;1.98;;;24.40;99.90;;;;;;5031395;28;20064;-64
2023/07/04 12:29:46;;;;;;;3.80;1.80;;;24.50;99.90;;;;;;5006384;28;20494;-64
2023/07/04 12:32:18;;;;;;;;;;;24.60;99.90;;;;;;5007898;28;20037;-63
2023/07/04 12:34:45;;;;;;;3.22;1.60;;;24.60;99.90;;;;;;5031899;28;20016;-64
2023/07/04 12:37:16;;;;;;;2.88;2.10;;;24.80;99.90;;;;;;5031555;28;20512;-63
2023/07/04 12:39:46;;;;;;;7.55;1.90;;;24.90;99.90;;;;;;5030749;28;20049;-64
2023/07/04 12:42:28;;;;;;;4.80;1.85;;;25.00;99.90;;;;;;5010172;28;20398;-63
2023/07/04 12:44:55;;;;;;;2.78;1.67;;;25.20;99.90;;;;;;5026100;28;20059;-63
2023/07/04 12:47:25;;;;;;;4.88;1.88;;;25.30;99.90;;;;;;5027624;28;20509;-64
2023/07/04 12:49:55;;;;;;;3.15;2.22;;;25.40;99.90;;;;;;5026447;28;20482;-64
2023/07/04 12:52:32;;;;;;;5.53;2.20;;;25.50;99.90;;;;;;5028106;28;20505;-64
2023/07/04 12:55:02;;;;;;;2.78;2.00;;;25.50;99.90;;;;;;5027576;28;20099;-63
2023/07/04 12:57:29;;;;;;;2.95;2.00;;;25.50;99.90;;;;;;5033057;28;20037;-63
2023/07/04 13:00:19;;;;;;;5.72;1.98;;;25.40;99.90;;;;;;5029092;28;20061;-63
2023/07/04 13:02:47;;;;;;;4.03;1.90;;;25.50;99.90;;;;;;5030755;28;20045;-63